Circle Line Brooklyn — WDE8160 — position and weather

sailwx.info

Track history (hours):
 
Tides and Currents Weather Stations Pressure Air Temp Water Temp Dewpoint Dewpoint Depression Visibility Wind Speed Wind Dir Waves Ship Positions

Circle Line Brooklyn

More information available from US FCC via Universal Licensing System and Coast Guard Vessel Documentation Center.

Last reported at 2014-Jul-22 19:24 UTC. Time now 2014-Jul-23 11:58 UTC.
Position N 40°49' W 073°56'.

MMSI: 367402250.

Date/timePositionNaut miles runAvg speedWind from/ knotsBaromVisibWave heightAir tempDewpointWater temp
2014-Jul-22 19:24N 40°49' W 073°56'910.6
2014-Jul-22 18:33N 40°41' W 074°03'6 1.7
2014-Jul-22 15:13N 40°45' W 073°57'6 8.4
2014-Jul-22 14:33N 40°41' W 074°02'1 0.1
2014-Jul-21 23:34N 40°42' W 074°01'1 0.9
2014-Jul-21 22:33N 40°42' W 074°02'9 2.9
2014-Jul-21 19:30N 40°50' W 073°56'1010.9
2014-Jul-21 18:33N 40°41' W 074°03'8 2.6
2014-Jul-21 15:21N 40°48' W 073°56'810.5
2014-Jul-21 14:33N 40°41' W 074°03'3 0.3
2014-Jul-21 01:30N 40°44' W 074°01'3 2.6
2014-Jul-21 00:30N 40°45' W 073°58'3 3.5
2014-Jul-20 23:33N 40°43' W 074°02'4 0.9
2014-Jul-20 19:05N 40°46' W 073°57'611.4
2014-Jul-20 18:33N 40°41' W 074°03'6 1.7
2014-Jul-20 15:03N 40°45' W 073°57'611.4
2014-Jul-20 14:33N 40°41' W 074°02'3 0.3
2014-Jul-20 03:27N 40°44' W 074°01'3 3.3
2014-Jul-20 02:33N 40°41' W 074°02'3 0.6
2014-Jul-19 21:32N 40°44' W 074°01'3 3.5
2014-Jul-19 20:33N 40°41' W 074°03'6 1.8
2014-Jul-19 17:15N 40°46' W 073°57'5 6.9
2014-Jul-19 16:33N 40°42' W 074°02'1 0.0
2014-Jul-18 21:33N 40°42' W 074°02'4 1.9
2014-Jul-18 19:16N 40°46' W 074°00'3 3.6
2014-Jul-18 18:33N 40°44' W 073°58'2 1.0
2014-Jul-18 16:10N 40°45' W 074°01'3 4.2
2014-Jul-18 15:33N 40°45' W 073°58'3 0.2
2014-Jul-18 00:33N 40°44' W 074°01'2 2.4
2014-Jul-17 23:33N 40°42' W 073°59'1 0.7
2014-Jul-17 21:33N 40°42' W 074°01'1 1.1
2014-Jul-17 20:33N 40°43' W 074°02'4 3.2
2014-Jul-17 19:08N 40°47' W 073°60'3 5.0
2014-Jul-17 18:34N 40°44' W 074°01'2 2.2
2014-Jul-17 17:33N 40°44' W 073°58'4 0.2
2014-Jul-16 19:33N 40°41' W 074°02'3 2.1
2014-Jul-16 18:03N 40°44' W 074°01'1 2.3
2014-Jul-16 17:33N 40°43' W 074°02'3 1.9
2014-Jul-16 16:03N 40°46' W 074°00'5 9.1
2014-Jul-16 15:32N 40°41' W 074°03'6 0.3
2014-Jul-15 19:20N 40°45' W 073°57'5 6.9
2014-Jul-15 18:33N 40°42' W 074°02'8 3.5
2014-Jul-15 16:19N 40°49' W 073°58'5 6.7
2014-Jul-15 15:33N 40°44' W 073°58'4 4.3
2014-Jul-15 14:34N 40°41' W 074°03'3 0.2
2014-Jul-15 00:33N 40°44' W 074°01'3 2.5
2014-Jul-14 23:33N 40°42' W 073°59'3 1.3
2014-Jul-14 21:32N 40°44' W 074°01'3 3.1
2014-Jul-14 20:33N 40°41' W 074°02'11 4.9
2014-Jul-14 18:15N 40°51' W 073°55'811.6
2014-Jul-14 17:33N 40°44' W 073°58'3 0.2
2014-Jul-14 00:29N 40°44' W 074°01'3 2.9
2014-Jul-13 23:33N 40°45' W 073°58'2 0.7
2014-Jul-13 20:27N 40°46' W 074°00'4 4.6
2014-Jul-13 19:33N 40°48' W 073°56'8 8.2
2014-Jul-13 18:33N 40°42' W 074°02'8 2.7
2014-Jul-13 15:33N 40°48' W 073°56'8 8.4
2014-Jul-13 14:33N 40°42' W 074°02'5 0.4
2014-Jul-13 03:30N 40°46' W 074°00'2 2.3
2014-Jul-13 02:33N 40°44' W 074°01'4 4.0
2014-Jul-13 01:34N 40°46' W 073°57'4 4.5
2014-Jul-13 00:33N 40°42' W 074°00'5 4.6
2014-Jul-12 23:33N 40°38' W 074°03'7 6.7
2014-Jul-12 22:33N 40°45' W 074°01'  
Track history (hours):
 
Tides and Currents Weather Stations Pressure Air Temp Water Temp Dewpoint Dewpoint Depression Visibility Wind Speed Wind Dir Waves Ship Positions

Circle Line Brooklyn

More information available from US FCC via Universal Licensing System and Coast Guard Vessel Documentation Center.

Last reported at 2014-Jul-22 19:24 UTC. Time now 2014-Jul-23 11:58 UTC.
Position N 40°49' W 073°56'.

MMSI: 367402250.

Date/timePositionNaut miles runAvg speedWind from/ knotsBaromVisibWave heightAir tempDewpointWater temp
2014-Jul-22 19:24N 40°49' W 073°56'910.6
2014-Jul-22 18:33N 40°41' W 074°03'6 1.7
2014-Jul-22 15:13N 40°45' W 073°57'6 8.4
2014-Jul-22 14:33N 40°41' W 074°02'1 0.1
2014-Jul-21 23:34N 40°42' W 074°01'1 0.9
2014-Jul-21 22:33N 40°42' W 074°02'9 2.9
2014-Jul-21 19:30N 40°50' W 073°56'1010.9
2014-Jul-21 18:33N 40°41' W 074°03'8 2.6
2014-Jul-21 15:21N 40°48' W 073°56'810.5
2014-Jul-21 14:33N 40°41' W 074°03'3 0.3
2014-Jul-21 01:30N 40°44' W 074°01'3 2.6
2014-Jul-21 00:30N 40°45' W 073°58'3 3.5
2014-Jul-20 23:33N 40°43' W 074°02'4 0.9
2014-Jul-20 19:05N 40°46' W 073°57'611.4
2014-Jul-20 18:33N 40°41' W 074°03'6 1.7
2014-Jul-20 15:03N 40°45' W 073°57'611.4
2014-Jul-20 14:33N 40°41' W 074°02'3 0.3
2014-Jul-20 03:27N 40°44' W 074°01'3 3.3
2014-Jul-20 02:33N 40°41' W 074°02'3 0.6
2014-Jul-19 21:32N 40°44' W 074°01'3 3.5
2014-Jul-19 20:33N 40°41' W 074°03'6 1.8
2014-Jul-19 17:15N 40°46' W 073°57'5 6.9
2014-Jul-19 16:33N 40°42' W 074°02'1 0.0
2014-Jul-18 21:33N 40°42' W 074°02'4 1.9
2014-Jul-18 19:16N 40°46' W 074°00'3 3.6
2014-Jul-18 18:33N 40°44' W 073°58'2 1.0
2014-Jul-18 16:10N 40°45' W 074°01'3 4.2
2014-Jul-18 15:33N 40°45' W 073°58'3 0.2
2014-Jul-18 00:33N 40°44' W 074°01'2 2.4
2014-Jul-17 23:33N 40°42' W 073°59'1 0.7
2014-Jul-17 21:33N 40°42' W 074°01'1 1.1
2014-Jul-17 20:33N 40°43' W 074°02'4 3.2
2014-Jul-17 19:08N 40°47' W 073°60'3 5.0
2014-Jul-17 18:34N 40°44' W 074°01'2 2.2
2014-Jul-17 17:33N 40°44' W 073°58'4 0.2
2014-Jul-16 19:33N 40°41' W 074°02'3 2.1
2014-Jul-16 18:03N 40°44' W 074°01'1 2.3
2014-Jul-16 17:33N 40°43' W 074°02'3 1.9
2014-Jul-16 16:03N 40°46' W 074°00'5 9.1
2014-Jul-16 15:32N 40°41' W 074°03'6 0.3
2014-Jul-15 19:20N 40°45' W 073°57'5 6.9
2014-Jul-15 18:33N 40°42' W 074°02'8 3.5
2014-Jul-15 16:19N 40°49' W 073°58'5 6.7
2014-Jul-15 15:33N 40°44' W 073°58'4 4.3
2014-Jul-15 14:34N 40°41' W 074°03'3 0.2
2014-Jul-15 00:33N 40°44' W 074°01'3 2.5
2014-Jul-14 23:33N 40°42' W 073°59'3 1.3
2014-Jul-14 21:32N 40°44' W 074°01'3 3.1
2014-Jul-14 20:33N 40°41' W 074°02'11 4.9
2014-Jul-14 18:15N 40°51' W 073°55'811.6
2014-Jul-14 17:33N 40°44' W 073°58'3 0.2
2014-Jul-14 00:29N 40°44' W 074°01'3 2.9
2014-Jul-13 23:33N 40°45' W 073°58'2 0.7
2014-Jul-13 20:27N 40°46' W 074°00'4 4.6
2014-Jul-13 19:33N 40°48' W 073°56'8 8.2
2014-Jul-13 18:33N 40°42' W 074°02'8 2.7
2014-Jul-13 15:33N 40°48' W 073°56'8 8.4
2014-Jul-13 14:33N 40°42' W 074°02'5 0.4
2014-Jul-13 03:30N 40°46' W 074°00'2 2.3
2014-Jul-13 02:33N 40°44' W 074°01'4 4.0
2014-Jul-13 01:34N 40°46' W 073°57'4 4.5
2014-Jul-13 00:33N 40°42' W 074°00'5 4.6
2014-Jul-12 23:33N 40°38' W 074°03'7 6.7
2014-Jul-12 22:33N 40°45' W 074°01'  

Dump ship's entire track history